< < Back
Terminal Aerodrome Forecast


Current Version              Previous Versions:   1  2  3  4  5  6  7  8  9  

Terminal Aerodrome Forecast

630
FTUS44 KBMX 241937 AAB
TAFMGM
TAF AMD
KMGM 241937Z 2420/2518 VRB03KT P6SM FEW080 SCT100
     FM250100 00000KT P6SM FEW250
     FM251500 08002KT P6SM FEW090=



Latest METAR

060
SAUS80 KWBC 251500 RRA
MTRMGM
METAR KMGM 251453Z 00000KT 10SM CLR 30/20 A3006 RMK AO2 SLP175 T03000200
51001


USA.gov is the U.S. government's official web portal to all federal, state and local government web resources and services.